Datchet, United Kingdom
Current Conditions -  °F | °C
As of 12:20 AM on Thursday 29 Jan 2015 (Local Time) from EGLL Reporting Station
Clear Clear  
Wind Chill: -2°   Ceiling: Unl
Heat Index:   Visibility: 6mi
Dew Point:   Wind: 16mph
Humidity: 81%   Direction: 240°WSW
Pressure: 29.47"   Gusts: NA
Location:  51.48°N, 0.58°W
Report Text: EGLL 290020Z 24014KT CAVOK 03/M00 Q0998 NOSIG
Loading
Personal Weather Stations






























Interactive Weather Map New forecast layout! Learn more

10-Day Weather Forecast

Advertisements
Track Severe Weather on mobile